createdAt,value
2018-06-03T00:00:56.134Z,3.00
2018-06-03T00:03:22.353Z,2.67
2018-06-03T00:05:48.592Z,2.77
2018-06-03T00:08:14.815Z,2.53
2018-06-03T00:10:41.119Z,2.87
2018-06-03T00:13:07.324Z,2.80
2018-06-03T00:15:33.533Z,2.63
2018-06-03T00:17:59.733Z,2.50
2018-06-03T00:34:34.286Z,2.80
2018-06-03T00:37:02.570Z,2.73
2018-06-03T00:39:30.734Z,2.67
2018-06-03T00:41:59.213Z,2.90
2018-06-03T00:44:28.334Z,2.57
2018-06-03T00:46:56.693Z,3.10
2018-06-03T00:49:24.968Z,2.73
2018-06-03T00:51:53.249Z,2.77
2018-06-03T00:54:21.536Z,3.10
2018-06-03T00:57:00.870Z,2.73
2018-06-03T00:59:28.924Z,2.60
2018-06-03T01:01:57.205Z,3.00
2018-06-03T01:04:25.386Z,3.83
2018-06-03T01:06:53.672Z,3.63
2018-06-03T01:09:22.417Z,3.50
2018-06-03T01:11:50.612Z,3.60
2018-06-03T01:14:18.901Z,3.80
2018-06-03T01:16:47.069Z,3.07
2018-06-03T01:19:16.277Z,3.40
2018-06-03T01:21:44.449Z,3.97
2018-06-03T01:24:12.626Z,3.70
2018-06-03T01:26:40.901Z,3.50
2018-06-03T01:29:09.187Z,3.73
2018-06-03T01:31:37.450Z,3.70
2018-06-03T01:34:05.821Z,3.70
2018-06-03T01:36:34.025Z,3.80
2018-06-03T01:39:02.293Z,3.40
2018-06-03T01:41:30.659Z,3.70
2018-06-03T01:43:58.828Z,3.43
2018-06-03T01:46:27.013Z,3.70
2018-06-03T01:48:55.186Z,3.70
2018-06-03T01:51:23.370Z,3.53
2018-06-03T01:53:51.736Z,3.73
2018-06-03T01:56:19.874Z,4.10
2018-06-03T01:58:48.094Z,3.70
2018-06-03T02:01:16.252Z,3.57
2018-06-03T02:03:44.438Z,3.50
2018-06-03T02:06:12.925Z,3.60
2018-06-03T02:08:41.293Z,3.37
2018-06-03T02:11:09.481Z,3.77
2018-06-03T02:13:37.650Z,3.67
2018-06-03T02:16:06.026Z,3.30
2018-06-03T02:18:34.401Z,3.37
2018-06-03T02:21:02.677Z,3.10
2018-06-03T02:23:30.954Z,3.70
2018-06-03T02:25:59.224Z,3.63
2018-06-03T02:28:27.397Z,3.30
2018-06-03T02:30:55.585Z,3.53
2018-06-03T02:33:23.853Z,3.97
2018-06-03T02:35:52.144Z,2.87
2018-06-03T02:38:21.325Z,3.47
2018-06-03T02:40:49.609Z,3.33
2018-06-03T02:43:17.887Z,3.70
2018-06-03T02:45:46.364Z,3.50
2018-06-03T02:48:14.750Z,4.07
2018-06-03T02:50:43.024Z,3.67
2018-06-03T02:53:11.197Z,3.93
2018-06-03T02:55:39.485Z,3.80
2018-06-03T02:58:07.666Z,3.33
2018-06-03T03:00:36.038Z,3.50
2018-06-03T03:03:04.514Z,3.40
2018-06-03T03:05:32.799Z,3.97
2018-06-03T03:08:01.176Z,4.20
2018-06-03T03:10:29.462Z,3.97
2018-06-03T03:12:57.817Z,4.13
2018-06-03T03:15:26.102Z,4.10
2018-06-03T03:17:54.494Z,4.63
2018-06-03T03:20:23.328Z,4.57
2018-06-03T03:22:51.540Z,4.33
2018-06-03T03:25:19.817Z,4.43
2018-06-03T03:27:48.195Z,4.17
2018-06-03T03:30:16.581Z,5.10
2018-06-03T03:32:44.854Z,4.30
2018-06-03T03:35:13.247Z,4.47
2018-06-03T03:37:41.420Z,4.00
2018-06-03T03:40:09.785Z,4.47
2018-06-03T03:42:37.960Z,4.10
2018-06-03T03:45:06.357Z,4.73
2018-06-03T03:47:34.521Z,4.33
2018-06-03T03:50:02.697Z,4.43
2018-06-03T03:52:31.078Z,5.40
2018-06-03T03:54:59.251Z,4.60
2018-06-03T03:57:27.418Z,5.03
2018-06-03T03:59:55.715Z,4.33
2018-06-03T04:02:23.964Z,4.83
2018-06-03T04:04:52.254Z,4.60
2018-06-03T04:07:20.421Z,4.60
2018-06-03T04:09:48.595Z,5.03
2018-06-03T04:12:17.285Z,4.63
2018-06-03T04:14:45.496Z,5.00
2018-06-03T04:17:13.747Z,4.67
2018-06-03T04:19:42.018Z,4.87
2018-06-03T04:22:10.187Z,3.90
2018-06-03T04:24:38.358Z,4.60
2018-06-03T04:27:06.534Z,4.57
2018-06-03T04:29:34.916Z,5.03
2018-06-03T04:32:03.188Z,4.43
2018-06-03T04:34:31.464Z,4.33
2018-06-03T04:36:59.641Z,3.47
2018-06-03T04:39:27.920Z,3.93
2018-06-03T04:41:56.205Z,3.90
2018-06-03T04:44:24.468Z,4.20
2018-06-03T04:46:52.642Z,4.17
2018-06-03T04:49:20.838Z,4.03
2018-06-03T04:51:49.297Z,3.67
2018-06-03T04:54:17.486Z,4.27
2018-06-03T04:56:46.184Z,3.70
2018-06-03T04:59:14.583Z,3.73
2018-06-03T05:01:42.830Z,4.00
2018-06-03T05:04:11.201Z,3.77
2018-06-03T05:06:39.385Z,3.40
2018-06-03T05:09:07.953Z,3.60
2018-06-03T05:11:36.238Z,3.90
2018-06-03T05:14:04.501Z,4.83
2018-06-03T05:16:32.685Z,4.10
2018-06-03T05:19:00.905Z,4.13
2018-06-03T05:21:29.146Z,3.93
2018-06-03T05:23:57.409Z,4.03
2018-06-03T05:26:25.594Z,3.70
2018-06-03T05:28:53.873Z,3.60
2018-06-03T05:31:22.237Z,3.90
2018-06-03T05:33:50.522Z,5.73
2018-06-03T05:36:18.802Z,4.50
2018-06-03T05:38:46.700Z,4.33
2018-06-03T05:41:14.594Z,4.40
2018-06-03T05:43:42.501Z,4.53
2018-06-03T05:46:10.478Z,4.60
2018-06-03T05:48:38.746Z,4.30
2018-06-03T05:51:07.021Z,4.43
2018-06-03T05:53:35.211Z,4.00
2018-06-03T05:56:03.677Z,5.23
2018-06-03T05:58:31.762Z,4.90
2018-06-03T06:00:59.921Z,4.30
2018-06-03T06:03:28.196Z,3.70
2018-06-03T06:05:56.382Z,3.70
2018-06-03T06:08:24.647Z,3.63
2018-06-03T06:10:52.942Z,3.63
2018-06-03T06:13:21.314Z,3.50
2018-06-03T06:15:49.492Z,3.70
2018-06-03T06:18:17.655Z,4.10
2018-06-03T06:20:46.498Z,4.33
2018-06-03T06:23:14.817Z,3.83
2018-06-03T06:25:43.096Z,4.73
2018-06-03T06:28:11.386Z,3.70
2018-06-03T06:30:39.662Z,3.90
2018-06-03T06:33:07.829Z,3.70
2018-06-03T06:35:36.197Z,3.53
2018-06-03T06:38:04.591Z,3.80
2018-06-03T06:40:32.970Z,3.77
2018-06-03T06:43:02.027Z,3.83
2018-06-03T06:45:30.244Z,4.20
2018-06-03T06:47:58.418Z,4.03
2018-06-03T06:50:26.958Z,4.60
2018-06-03T06:52:55.382Z,4.33
2018-06-03T06:55:23.763Z,3.67
2018-06-03T06:57:52.128Z,4.13
2018-06-03T07:00:20.424Z,3.90
2018-06-03T07:02:49.661Z,4.17
2018-06-03T07:05:18.408Z,3.67
2018-06-03T07:07:46.780Z,4.47
2018-06-03T07:10:15.053Z,4.63
2018-06-03T07:12:43.346Z,3.80
2018-06-03T07:15:11.622Z,4.13
2018-06-03T07:17:39.798Z,4.43
2018-06-03T07:20:07.970Z,4.53
2018-06-03T07:22:36.442Z,3.87
2018-06-03T07:25:04.826Z,3.73
2018-06-03T07:27:33.215Z,4.03
2018-06-03T07:30:01.486Z,4.70
2018-06-03T07:32:29.762Z,4.20
2018-06-03T07:34:58.038Z,6.23
2018-06-03T07:37:26.269Z,7.43
2018-06-03T07:39:54.694Z,5.50
2018-06-03T07:42:23.649Z,4.77
2018-06-03T07:44:52.077Z,5.47
2018-06-03T07:47:20.346Z,4.20
2018-06-03T07:49:48.530Z,4.10
2018-06-03T07:52:16.702Z,4.00
2018-06-03T07:54:45.181Z,4.13
2018-06-03T07:57:13.333Z,5.17
2018-06-03T07:59:41.756Z,4.40
2018-06-03T08:02:09.988Z,3.97
2018-06-03T08:04:38.446Z,4.03
2018-06-03T08:07:06.874Z,3.83
2018-06-03T08:09:35.150Z,3.70
2018-06-03T08:12:03.517Z,3.30
2018-06-03T08:14:31.801Z,3.67
2018-06-03T08:17:00.338Z,4.27
2018-06-03T08:19:28.559Z,4.17
2018-06-03T08:21:57.043Z,4.07
2018-06-03T08:24:25.637Z,3.67
2018-06-03T08:26:54.155Z,3.80
2018-06-03T08:32:52.533Z,4.07
2018-06-03T08:35:21.001Z,3.93
2018-06-03T08:37:49.401Z,3.53
2018-06-03T08:40:18.846Z,3.73
2018-06-03T08:42:47.182Z,4.13
2018-06-03T08:45:15.550Z,4.03
2018-06-03T08:47:43.882Z,4.07
2018-06-03T08:50:12.206Z,4.30
2018-06-03T08:52:40.611Z,3.80
2018-06-03T08:55:08.965Z,4.33
2018-06-03T08:57:37.137Z,3.50
2018-06-03T09:00:05.498Z,3.63
2018-06-03T09:02:33.887Z,3.60
2018-06-03T09:05:02.275Z,4.70
2018-06-03T09:07:30.454Z,3.97
2018-06-03T09:09:58.818Z,4.43
2018-06-03T09:12:27.001Z,4.30
2018-06-03T09:14:55.170Z,3.83
2018-06-03T09:17:23.557Z,3.70
2018-06-03T09:19:51.935Z,3.97
2018-06-03T09:22:20.216Z,3.60
2018-06-03T09:24:48.482Z,4.10
2018-06-03T09:27:16.813Z,3.63
2018-06-03T09:29:45.338Z,4.10
2018-06-03T09:32:13.609Z,4.23
2018-06-03T09:34:41.882Z,4.03
2018-06-03T09:37:10.296Z,4.57
2018-06-03T09:43:50.690Z,4.30
2018-06-03T09:46:19.936Z,4.47
2018-06-03T09:48:48.399Z,4.37
2018-06-03T09:51:16.775Z,4.60
2018-06-03T09:53:45.055Z,3.77
2018-06-03T09:56:13.331Z,3.90
2018-06-03T09:58:41.788Z,4.73
2018-06-03T10:01:10.073Z,4.17
2018-06-03T10:03:38.254Z,4.20
2018-06-03T10:06:06.837Z,4.20
2018-06-03T10:08:35.053Z,4.40
2018-06-03T10:11:03.322Z,4.30
2018-06-03T10:13:31.616Z,4.73
2018-06-03T10:15:59.989Z,4.20
2018-06-03T10:18:28.260Z,4.77
2018-06-03T10:20:56.534Z,4.10
2018-06-03T10:23:24.826Z,4.40
2018-06-03T10:25:52.986Z,4.57
2018-06-03T10:28:21.174Z,4.60
2018-06-03T10:30:49.433Z,4.40
2018-06-03T10:33:17.731Z,4.90
2018-06-03T10:35:46.006Z,4.40
2018-06-03T10:38:14.278Z,4.30
2018-06-03T10:40:42.558Z,4.90
2018-06-03T10:43:10.825Z,5.17
2018-06-03T10:45:39.012Z,4.43
2018-06-03T10:48:07.378Z,5.20
2018-06-03T10:50:35.726Z,5.73
2018-06-03T10:53:03.933Z,5.87
2018-06-03T10:55:32.099Z,4.80
2018-06-03T10:58:01.315Z,5.20
2018-06-03T11:00:29.486Z,4.60
2018-06-03T11:02:57.989Z,5.50
2018-06-03T11:05:26.653Z,4.70
2018-06-03T11:07:55.153Z,4.67
2018-06-03T11:10:23.414Z,4.57
2018-06-03T11:12:52.027Z,5.00
2018-06-03T11:15:20.378Z,4.70
2018-06-03T11:17:48.645Z,4.90
2018-06-03T11:20:17.778Z,4.80
2018-06-03T11:22:55.628Z,4.70
2018-06-03T11:25:31.197Z,5.43
2018-06-03T11:27:59.478Z,4.20
2018-06-03T11:30:27.961Z,4.80
2018-06-03T11:32:56.568Z,5.30
2018-06-03T11:35:25.017Z,5.27
2018-06-03T11:37:53.717Z,4.90
2018-06-03T11:40:22.897Z,4.97
2018-06-03T11:42:51.192Z,5.33
2018-06-03T11:45:19.559Z,4.90
2018-06-03T11:47:48.698Z,4.90
2018-06-03T11:50:17.026Z,5.20
2018-06-03T11:52:45.213Z,5.67
2018-06-03T11:55:13.474Z,5.17
2018-06-03T11:58:55.408Z,5.30
2018-06-03T12:01:24.435Z,5.30
2018-06-03T12:03:52.865Z,4.77
2018-06-03T12:06:21.342Z,5.17
2018-06-03T12:08:50.556Z,5.13
2018-06-03T12:11:19.057Z,4.70
2018-06-03T12:13:47.397Z,5.40
2018-06-03T12:16:15.621Z,5.30
2018-06-03T12:18:44.062Z,5.30
2018-06-03T12:21:12.241Z,5.33
2018-06-03T12:23:40.520Z,5.00
2018-06-03T12:26:08.694Z,5.00
2018-06-03T12:28:37.034Z,5.70
2018-06-03T12:31:05.230Z,5.00
2018-06-03T12:33:33.519Z,5.27
2018-06-03T12:36:01.813Z,5.17
2018-06-03T12:38:39.747Z,5.00
2018-06-03T12:41:09.205Z,4.87
2018-06-03T12:43:37.491Z,4.87
2018-06-03T12:46:05.864Z,4.80
2018-06-03T12:48:34.247Z,4.60
2018-06-03T12:51:02.519Z,4.73
2018-06-03T12:53:30.801Z,4.60
2018-06-03T12:55:58.970Z,4.27
2018-06-03T12:58:27.145Z,4.70
2018-06-03T13:00:55.410Z,4.73
2018-06-03T13:03:30.047Z,4.60
2018-06-03T13:05:59.335Z,4.30
2018-06-03T13:08:28.538Z,4.57
2018-06-03T13:10:56.821Z,4.13
2018-06-03T13:13:25.099Z,4.80
2018-06-03T13:15:53.298Z,4.80
2018-06-03T13:18:21.553Z,4.90
2018-06-03T13:20:49.818Z,4.90
2018-06-03T13:23:18.010Z,4.60
2018-06-03T13:25:46.170Z,4.97
2018-06-03T13:28:14.563Z,5.03
2018-06-03T13:30:42.713Z,4.50
2018-06-03T13:33:11.009Z,5.03
2018-06-03T13:35:39.273Z,5.73
2018-06-03T13:38:07.857Z,6.37
2018-06-03T13:40:36.025Z,7.23
2018-06-03T13:43:04.454Z,7.00
2018-06-03T13:45:32.670Z,8.60
2018-06-03T13:48:01.017Z,7.63
2018-06-03T13:50:29.349Z,6.27
2018-06-03T13:52:57.513Z,5.70
2018-06-03T13:55:25.686Z,5.33
2018-06-03T13:57:54.007Z,4.93
2018-06-03T14:00:22.158Z,4.67
2018-06-03T14:02:50.333Z,5.00
2018-06-03T14:05:18.498Z,4.47
2018-06-03T14:07:47.700Z,4.33
2018-06-03T14:10:15.874Z,3.93
2018-06-03T14:12:44.136Z,4.67
2018-06-03T14:15:12.429Z,4.30
2018-06-03T14:17:40.698Z,3.90
2018-06-03T14:20:08.983Z,3.80
2018-06-03T14:22:37.245Z,3.40
2018-06-03T14:25:05.534Z,3.80
2018-06-03T14:27:33.798Z,3.23
2018-06-03T14:30:02.073Z,3.57
2018-06-03T14:32:30.364Z,3.40
2018-06-03T14:34:58.641Z,3.57
2018-06-03T14:37:26.968Z,2.90
2018-06-03T14:39:55.187Z,3.60
2018-06-03T14:42:23.477Z,3.60
2018-06-03T14:44:51.740Z,2.90
2018-06-03T14:47:20.023Z,2.40
2018-06-03T14:49:48.321Z,2.87
2018-06-03T14:52:16.569Z,4.10
2018-06-03T14:54:44.733Z,2.63
2018-06-03T14:57:12.917Z,3.17
2018-06-03T14:59:41.045Z,2.50
2018-06-03T15:02:09.226Z,3.30
2018-06-03T15:04:37.386Z,2.87
2018-06-03T15:07:05.817Z,2.70
2018-06-03T15:09:34.335Z,2.87
2018-06-03T15:12:02.638Z,2.70
2018-06-03T15:14:31.025Z,2.83
2018-06-03T15:16:59.670Z,3.60
2018-06-03T15:19:27.991Z,3.00
2018-06-03T15:21:56.279Z,2.83
2018-06-03T15:24:24.649Z,2.70
2018-06-03T15:26:54.064Z,2.90
2018-06-03T15:29:22.251Z,2.70
2018-06-03T15:31:50.434Z,2.60
2018-06-03T15:34:18.814Z,3.10
2018-06-03T15:36:46.994Z,2.90
2018-06-03T15:39:15.373Z,2.70
2018-06-03T15:41:43.754Z,2.80
2018-06-03T15:44:12.113Z,2.83
2018-06-03T15:46:41.714Z,3.10
2018-06-03T15:49:10.533Z,3.00
2018-06-03T15:51:42.643Z,4.20
2018-06-03T15:54:11.383Z,4.60
2018-06-03T15:56:39.688Z,4.93
2018-06-03T15:59:07.839Z,4.90
2018-06-03T16:01:36.130Z,3.10
2018-06-03T16:04:04.297Z,3.00
2018-06-03T16:06:32.518Z,3.90
2018-06-03T16:09:02.242Z,5.80
2018-06-03T16:11:31.105Z,6.27
2018-06-03T16:14:00.521Z,5.10
2018-06-03T16:16:28.874Z,5.43
2018-06-03T16:18:57.184Z,4.93
2018-06-03T16:21:25.671Z,4.80
2018-06-03T16:23:54.217Z,3.43
2018-06-03T16:26:23.094Z,4.27
2018-06-03T16:28:51.314Z,3.57
2018-06-03T16:31:19.619Z,3.20
2018-06-03T16:33:48.062Z,3.07
2018-06-03T16:36:16.878Z,3.40
2018-06-03T16:38:45.237Z,3.30
2018-06-03T16:41:13.377Z,3.47
2018-06-03T16:43:41.773Z,4.33
2018-06-03T16:46:09.933Z,4.20
2018-06-03T16:48:38.385Z,4.10
2018-06-03T16:51:06.500Z,4.67
2018-06-03T16:53:34.670Z,3.63
2018-06-03T16:56:02.980Z,4.03
2018-06-03T16:58:31.249Z,4.40
2018-06-03T17:00:59.562Z,4.43
2018-06-03T17:03:27.874Z,4.33
2018-06-03T17:05:56.068Z,4.40
2018-06-03T17:08:26.049Z,3.90
2018-06-03T17:10:54.341Z,3.40
2018-06-03T17:13:22.687Z,3.83
2018-06-03T17:15:50.805Z,3.40
2018-06-03T17:18:20.347Z,3.30
2018-06-03T17:20:49.283Z,3.50
2018-06-03T17:23:18.313Z,3.03
2018-06-03T17:25:46.827Z,3.50
2018-06-03T17:28:23.191Z,3.50
2018-06-03T17:30:57.790Z,3.97
2018-06-03T17:33:26.057Z,3.80
2018-06-03T17:35:54.544Z,3.60
2018-06-03T17:38:22.813Z,4.13
2018-06-03T17:40:51.085Z,10.77
2018-06-03T17:43:53.165Z,7.47
2018-06-03T17:47:07.166Z,4.73
2018-06-03T17:49:41.934Z,4.43
2018-06-03T17:52:10.178Z,4.50
2018-06-03T17:54:38.466Z,3.90
2018-06-03T17:57:06.730Z,5.70
2018-06-03T17:59:34.807Z,4.03
2018-06-03T18:02:03.078Z,4.27
2018-06-03T18:04:31.267Z,3.53
2018-06-03T18:06:59.305Z,3.23
2018-06-03T18:09:27.719Z,3.23
2018-06-03T18:14:56.901Z,3.80
2018-06-03T18:17:25.690Z,4.20
2018-06-03T18:19:54.021Z,3.90
2018-06-03T18:22:24.266Z,3.60
2018-06-03T18:24:52.583Z,4.57
2018-06-03T18:27:20.902Z,4.17
2018-06-03T18:29:48.921Z,3.90
2018-06-03T18:32:17.149Z,4.67
2018-06-03T18:34:45.317Z,3.93
2018-06-03T18:37:33.314Z,4.30
2018-06-03T18:40:30.513Z,4.23
2018-06-03T18:43:42.101Z,4.40
2018-06-03T18:46:21.862Z,3.77
2018-06-03T18:48:56.593Z,4.43
2018-06-03T18:51:47.902Z,4.07
2018-06-03T18:54:34.738Z,4.20
2018-06-03T18:57:06.762Z,4.37
2018-06-03T18:59:35.408Z,4.23
2018-06-03T19:02:04.027Z,4.03
2018-06-03T19:04:32.353Z,4.40
2018-06-03T19:07:00.952Z,4.77
2018-06-03T19:09:29.773Z,4.47
2018-06-03T19:11:58.022Z,3.97
2018-06-03T19:14:26.430Z,4.57
2018-06-03T19:16:54.574Z,3.97
2018-06-03T19:19:22.858Z,4.80
2018-06-03T19:21:51.009Z,5.10
2018-06-03T19:24:19.192Z,4.20
2018-06-03T19:26:47.510Z,4.77
2018-06-03T19:29:15.545Z,5.20
2018-06-03T19:31:43.514Z,4.70
2018-06-03T19:34:14.608Z,4.57
2018-06-03T19:36:42.826Z,4.37
2018-06-03T19:39:12.661Z,4.23
2018-06-03T19:41:41.178Z,4.70
2018-06-03T19:44:09.503Z,4.47
2018-06-03T19:46:37.779Z,4.30
2018-06-03T19:49:07.632Z,4.50
2018-06-03T19:52:15.566Z,4.83
2018-06-03T19:54:55.764Z,4.30
2018-06-03T19:57:45.658Z,4.93
2018-06-03T20:00:13.953Z,4.03
2018-06-03T20:03:14.976Z,4.67
2018-06-03T20:05:44.298Z,4.27
2018-06-03T20:08:12.630Z,5.50
2018-06-03T20:10:41.018Z,5.33
2018-06-03T20:13:09.546Z,5.10
2018-06-03T20:15:37.783Z,4.80
2018-06-03T20:18:06.372Z,4.80
2018-06-03T20:20:34.541Z,5.17
2018-06-03T20:23:03.079Z,5.27
2018-06-03T20:25:31.288Z,4.90
2018-06-03T20:28:06.877Z,5.57
2018-06-03T20:30:35.539Z,5.47
2018-06-03T20:33:04.003Z,5.37
2018-06-03T20:35:32.319Z,5.63
2018-06-03T20:38:00.571Z,5.20
2018-06-03T20:40:28.797Z,5.17
2018-06-03T20:42:57.071Z,5.20
2018-06-03T20:45:25.625Z,5.57
2018-06-03T20:47:53.780Z,5.50
2018-06-03T20:50:22.904Z,5.70
2018-06-03T20:52:51.254Z,5.50
2018-06-03T20:55:19.573Z,5.30
2018-06-03T20:57:47.832Z,5.60
2018-06-03T21:00:16.185Z,9.43
2018-06-03T21:02:44.461Z,10.00
2018-06-03T21:05:12.775Z,10.47
2018-06-03T21:07:41.000Z,10.23
2018-06-03T21:10:09.404Z,9.67
2018-06-03T21:12:37.736Z,9.47
2018-06-03T21:15:06.055Z,8.53
2018-06-03T21:17:34.231Z,8.13
2018-06-03T21:20:02.713Z,8.90
2018-06-03T21:22:30.871Z,9.17
2018-06-03T21:24:59.082Z,7.93
2018-06-03T21:27:27.343Z,7.63
2018-06-03T21:29:55.714Z,8.33
2018-06-03T21:32:24.022Z,8.50
2018-06-03T21:34:52.266Z,8.10
2018-06-03T21:37:20.430Z,7.80
2018-06-03T21:39:48.866Z,8.40
2018-06-03T21:42:17.098Z,8.40
2018-06-03T21:44:45.377Z,8.20
2018-06-03T21:47:13.581Z,7.80
2018-06-03T21:49:41.938Z,7.60
2018-06-03T21:52:10.210Z,7.77
2018-06-03T21:54:38.626Z,6.53
2018-06-03T21:57:06.855Z,5.60
2018-06-03T21:59:35.161Z,5.53
2018-06-03T22:02:03.458Z,5.73
2018-06-03T22:04:32.190Z,5.30
2018-06-03T22:07:00.370Z,5.37
2018-06-03T22:09:28.697Z,5.43
2018-06-03T22:11:57.021Z,5.50
2018-06-03T22:14:25.697Z,5.57
2018-06-03T22:16:53.919Z,5.77
2018-06-03T22:19:22.279Z,5.33
2018-06-03T22:21:50.653Z,5.70
2018-06-03T22:24:19.009Z,5.40
2018-06-03T22:26:47.508Z,5.57
2018-06-03T22:29:15.688Z,5.63
2018-06-03T22:31:44.096Z,5.13
2018-06-03T22:34:12.446Z,6.10
2018-06-03T22:36:40.714Z,6.00
2018-06-03T22:39:09.134Z,5.57
2018-06-03T22:41:37.069Z,5.90
2018-06-03T22:44:05.445Z,5.70
2018-06-03T22:46:33.590Z,5.87
2018-06-03T22:49:01.997Z,5.60
2018-06-03T22:51:30.174Z,5.73
2018-06-03T22:53:58.498Z,5.73
2018-06-03T22:56:36.302Z,6.03
2018-06-03T22:59:04.454Z,5.83
2018-06-03T23:01:32.605Z,6.17
2018-06-03T23:04:00.785Z,5.67
2018-06-03T23:06:29.098Z,5.57
2018-06-03T23:08:57.345Z,5.77
2018-06-03T23:11:25.585Z,5.90
2018-06-03T23:13:53.814Z,6.77
2018-06-03T23:16:21.944Z,5.93
2018-06-03T23:18:50.370Z,6.20
2018-06-03T23:21:18.882Z,5.93
2018-06-03T23:23:47.398Z,5.97
2018-06-03T23:26:15.592Z,5.90
2018-06-03T23:28:43.981Z,6.47
2018-06-03T23:31:12.229Z,6.17
2018-06-03T23:33:40.611Z,6.23
2018-06-03T23:36:08.811Z,6.53
2018-06-03T23:38:36.962Z,5.90
2018-06-03T23:41:05.335Z,5.90
2018-06-03T23:43:33.665Z,6.13
2018-06-03T23:46:01.983Z,6.30
2018-06-03T23:48:30.299Z,5.60
2018-06-03T23:50:58.658Z,6.43
2018-06-03T23:53:27.121Z,6.90
2018-06-03T23:55:55.310Z,6.40
2018-06-03T23:58:23.626Z,7.03
